Aérodrome :
LOGIN :

S'inscrire | Disclaimer

   EN    FR    IT 

 










Légende :    VFR   VFR Marginal   IFR   IFR Intensif   IFR Très Intensif
Visi : 
Plafond : 
>= 8 km
>= 3000ft
5 à 8 km
1000 à 3000 ft
1500m à 5 km
500 à 1000 ft
800 à 1500m
200 à 500 ft
< 800m
< 200 ft
Symboles :   Orages  Brouillard  Fortes neiges  Fortes précipitations  Vent > 20 kt
SIGMETs :   Divers  Orages  Givrage  Turbulence  Onde Orograph.  Cendres Volcan.






- Altitude de l'aérodrome : 659 ft
- Code IATA : LGG


EBLG - Liège

DERNIER METAR :
  • 231120Z 23027KT 4800 -DZ SCT010 BKN013 11/10 Q1014 TEMPO 24028G40KT 2500 -DZ BKN009

METARs EXPIRÉS :
  • 231050Z 23029G40KT 8000 -RA SCT012 BKN016 12/09 Q1014 TEMPO 4000 -DZ BKN009
  • 231020Z 23026G38KT 9999 SCT015 BKN019 12/09 Q1014 TEMPO 24025G40KT 4000 -DZ BKN009
  • 230950Z 23027KT 9999 SCT014 BKN017 11/09 Q1014 TEMPO 24025G40KT 4000 -DZ BKN009
  • 230920Z 23027G39KT 9999 SCT013 BKN015 11/09 Q1015 TEMPO 24025G40KT 4000 -DZ BKN009
  • 230850Z 22027KT 9999 SCT013 BKN015 11/09 Q1014 TEMPO 24025G40KT 4000 -DZ BKN009

TAF TAF EBLG
Valide du 23 à 12h jusqu'au 24 à 18h UTC


231110Z 2312/2418 25022G38KT 8000 -RA SCT008 BKN012
TEMPO 2312/2318 3500 -RADZ RA BKN008
BECMG 2316/2318 29010KT SCT018 BKN040
BECMG 2400/2402 19004KT
BECMG 2406/2408 4000 -RADZ BKN006 BKN012
TEMPO 2414/2418 6000 -DZ FEW006 BKN012
BECMG 2410/2412 23018G30KT



MET'MAP, la Météo Aéronautique d'un coup d'oeil ! - Copyright ORBIFLY Décembre 2007 - Disclaimer

ORBIFLY MET'MAP TEAM :

Programmation & Développement : Alexandra Zaïnal
Sur une idée originale de : Baudouin d'Aumeries
Assistance à la programmation : Marc-Olivier Méhu
Soutien technique & logistique : Manuel Goepfert

Contact : metmap@orbifly.com




SOURCES & CREDITS :

   NOAA